Time;durP1;ratioP1;P1;durP2;ratioP2;P2;SDS_P1;SDS_P2;PMS_P1;PMS_P2;Temp;Humidity;BMP_temperature;BMP_pressure;BME280_temperature;BME280_humidity;BME280_pressure;Samples;Min_cycle;Max_cycle;Signal;HPM_P1;HPM_P2
2022/07/30 00:00:17;;;;;;;3.78;2.70;;;;;;;18.52;78.06;95932.69;5001022;28;24831;-74
2022/07/30 00:02:44;;;;;;;4.25;2.70;;;;;;;18.43;78.72;95941.41;5010500;28;24455;-74
2022/07/30 00:05:11;;;;;;;2.72;2.15;;;;;;;18.45;79.07;95931.59;5011505;28;24440;-74
2022/07/30 00:07:38;;;;;;;3.63;2.20;;;;;;;18.38;79.37;95931.31;5006820;28;25006;-74
2022/07/30 00:10:05;;;;;;;4.72;2.30;;;;;;;18.40;79.46;95931.22;5012274;28;24428;-74
2022/07/30 00:12:31;;;;;;;6.72;2.40;;;;;;;18.41;79.41;95932.84;5012602;28;24470;-74
2022/07/30 00:14:58;;;;;;;4.22;2.03;;;;;;;18.35;80.17;95934.25;5009550;28;24439;-74
2022/07/30 00:17:24;;;;;;;7.97;2.20;;;;;;;18.48;79.48;95936.56;5007005;28;24458;-74
2022/07/30 00:19:51;;;;;;;4.37;2.40;;;;;;;18.59;79.39;95940.81;5011978;28;24444;-74
2022/07/30 00:22:19;;;;;;;3.42;2.10;;;;;;;18.62;79.06;95935.31;5012509;28;24819;-74
2022/07/30 00:24:45;;;;;;;3.22;1.98;;;;;;;18.60;79.55;95940.69;5011566;28;24436;-74
2022/07/30 00:27:13;;;;;;;5.72;2.78;;;;;;;18.60;79.89;95939.84;5012314;28;24437;-74
2022/07/30 00:29:39;;;;;;;6.50;2.50;;;;;;;18.60;79.98;95938.06;5009160;28;24443;-74
2022/07/30 00:32:06;;;;;;;3.50;2.33;;;;;;;18.59;80.10;95944.28;5012156;28;24483;-74
2022/07/30 00:34:33;;;;;;;4.17;2.10;;;;;;;18.59;80.23;95944.28;5012188;28;24444;-74
2022/07/30 00:36:59;;;;;;;3.25;2.00;;;;;;;18.61;80.27;95939.72;5005905;28;24894;-74
2022/07/30 00:39:29;;;;;;;4.22;2.33;;;;;;;18.56;80.50;95941.94;5007023;28;24487;-74
2022/07/30 00:41:57;;;;;;;4.38;2.35;;;;;;;18.57;80.44;95948.00;5009344;28;24440;-73
2022/07/30 00:44:24;;;;;;;3.17;2.20;;;;;;;18.52;80.92;95943.19;5034031;22;24483;-75
2022/07/30 00:46:50;;;;;;;3.05;2.08;;;;;;;18.44;81.73;95939.63;5020196;28;25008;-74
2022/07/30 00:49:17;;;;;;;3.80;2.20;;;;;;;18.47;82.00;95947.22;5017503;28;25034;-75
2022/07/30 00:51:43;;;;;;;3.80;2.40;;;;;;;18.54;81.62;95943.03;5021847;28;24452;-75
2022/07/30 00:54:10;;;;;;;3.00;2.20;;;;;;;18.50;81.54;95939.91;5013830;28;24448;-75
2022/07/30 00:56:38;;;;;;;4.85;2.78;;;;;;;18.46;81.93;95937.66;5010454;28;24888;-74
2022/07/30 00:59:05;;;;;;;3.67;2.25;;;;;;;18.40;82.56;95930.38;5008043;28;24448;-74
2022/07/30 01:01:32;;;;;;;3.13;2.23;;;;;;;18.37;82.53;95939.34;5017556;28;24868;-74
2022/07/30 01:03:58;;;;;;;4.30;2.72;;;;;;;18.30;82.93;95939.06;5014998;28;24444;-75
2022/07/30 01:06:25;;;;;;;2.33;2.10;;;;;;;18.24;83.62;95937.00;5019765;28;24443;-74
2022/07/30 01:08:53;;;;;;;4.65;2.55;;;;;;;18.19;84.10;95946.25;5015939;28;24495;-75
2022/07/30 01:11:19;;;;;;;3.40;2.10;;;;;;;18.18;84.62;95942.81;5013628;28;24544;-74
2022/07/30 01:13:48;;;;;;;3.40;2.30;;;;;;;18.08;85.54;95949.84;5019986;28;24436;-75
2022/07/30 01:16:15;;;;;;;5.47;2.63;;;;;;;18.02;86.30;95953.88;5011563;28;24482;-75
2022/07/30 01:21:34;;;;;;;3.50;2.47;;;;;;;17.82;88.44;95952.19;5005107;28;24440;-75
2022/07/30 01:24:12;;;;;;;4.57;2.50;;;;;;;17.66;89.93;95963.16;5005988;28;24440;-75
2022/07/30 01:26:40;;;;;;;5.27;2.90;;;;;;;17.62;90.32;95953.91;5014291;28;24472;-75
2022/07/30 01:29:09;;;;;;;4.53;2.90;;;;;;;17.52;91.36;95951.28;5017624;28;25023;-74
2022/07/30 01:31:36;;;;;;;3.78;2.85;;;;;;;17.53;91.36;95952.91;5017000;28;24436;-74
2022/07/30 01:34:03;;;;;;;12.73;3.30;;;;;;;17.52;91.35;95959.13;5023173;28;24435;-75
2022/07/30 01:36:31;;;;;;;3.97;2.90;;;;;;;17.48;90.87;95960.34;5020732;28;24447;-75
2022/07/30 01:38:59;;;;;;;6.57;2.80;;;;;;;17.47;91.17;95956.09;5008651;28;24459;-74
2022/07/30 01:41:28;;;;;;;4.05;2.85;;;;;;;17.41;90.73;95956.63;5018938;28;24448;-75
2022/07/30 01:43:56;;;;;;;4.25;3.20;;;;;;;17.34;90.29;95956.31;5013493;28;24451;-74
2022/07/30 01:46:24;;;;;;;5.30;3.00;;;;;;;17.39;89.60;95955.91;5018574;28;24444;-74
2022/07/30 01:48:51;;;;;;;3.67;2.92;;;;;;;17.33;90.08;95952.06;5017877;28;24440;-75
2022/07/30 01:51:19;;;;;;;5.30;3.33;;;;;;;17.25;90.48;95953.69;5009803;28;24437;-74
2022/07/30 01:53:48;;;;;;;5.68;3.00;;;;;;;17.20;90.39;95943.59;5012465;28;24471;-74
2022/07/30 01:56:16;;;;;;;5.68;3.42;;;;;;;17.13;90.83;95948.56;5019121;28;24435;-75
2022/07/30 01:58:43;;;;;;;3.67;3.17;;;;;;;17.09;90.41;95955.00;5012509;28;24441;-74
2022/07/30 02:01:11;;;;;;;4.50;3.20;;;;;;;17.06;90.17;95947.41;5018923;28;24444;-75
2022/07/30 02:03:37;;;;;;;16.15;3.80;;;;;;;17.04;89.78;95959.78;5011663;28;24498;-74
2022/07/30 02:06:09;;;;;;;4.90;3.30;;;;;;;17.06;89.38;95955.28;5010549;28;24437;-75
2022/07/30 02:08:40;;;;;;;7.32;3.95;;;;;;;17.03;88.96;95959.94;5019264;28;24511;-75
2022/07/30 02:11:09;;;;;;;4.90;3.10;;;;;;;16.99;88.60;95950.69;5019318;28;24444;-75
2022/07/30 02:13:42;;;;;;;4.47;3.22;;;;;;;16.96;88.50;95956.19;5018917;28;24494;-74
2022/07/30 02:16:15;;;;;;;7.13;3.50;;;;;;;16.98;87.91;95959.47;5019039;28;24442;-73
2022/07/30 02:18:50;;;;;;;5.95;3.80;;;;;;;16.98;87.67;95964.72;5019387;28;24463;-75
2022/07/30 02:21:20;;;;;;;7.10;3.87;;;;;;;17.02;87.42;95966.09;5022334;28;24994;-74
2022/07/30 02:23:48;;;;;;;6.97;3.63;;;;;;;17.04;87.08;95964.19;5020161;28;25027;-74
2022/07/30 02:26:18;;;;;;;6.27;2.90;;;;;;;17.10;86.67;95958.44;5022165;28;25368;-75
2022/07/30 02:28:49;;;;;;;7.65;3.72;;;;;;;17.13;86.70;95960.78;5019721;28;24455;-75
2022/07/30 02:31:23;;;;;;;8.85;3.80;;;;;;;17.16;86.51;95969.19;5016490;28;24491;-74
2022/07/30 02:33:53;;;;;;;5.73;3.80;;;;;;;17.11;87.17;95970.56;5004140;28;24448;-74
2022/07/30 02:36:21;;;;;;;6.47;3.10;;;;;;;17.04;87.47;95972.88;5019064;28;24561;-74
2022/07/30 02:38:50;;;;;;;10.93;3.60;;;;;;;17.03;87.70;95971.22;5012563;28;24456;-74
2022/07/30 02:41:18;;;;;;;4.95;3.30;;;;;;;17.01;87.93;95975.75;5016718;28;25072;-75
2022/07/30 02:43:47;;;;;;;7.25;3.35;;;;;;;16.92;88.53;95979.16;5008233;28;24990;-75
2022/07/30 02:46:16;;;;;;;5.63;3.00;;;;;;;16.81;89.63;95980.06;5010057;28;24443;-74
2022/07/30 02:48:45;;;;;;;3.67;3.05;;;;;;;16.73;90.22;95981.66;5019244;28;24432;-75
2022/07/30 02:51:15;;;;;;;4.60;2.95;;;;;;;16.69;90.50;95987.13;5013827;28;24957;-74
2022/07/30 02:53:45;;;;;;;4.53;3.35;;;;;;;16.61;91.30;95994.78;5010919;28;24463;-73
2022/07/30 02:56:14;;;;;;;6.03;2.97;;;;;;;16.55;91.95;95990.06;5015141;28;24440;-74
2022/07/30 02:58:43;;;;;;;6.75;3.28;;;;;;;16.40;93.42;95986.94;5018959;28;24459;-75
2022/07/30 03:01:11;;;;;;;6.18;2.92;;;;;;;16.26;95.11;95989.03;5014548;28;24965;-74
2022/07/30 03:03:39;;;;;;;4.90;3.00;;;;;;;16.13;96.35;95983.94;5012290;28;24443;-74
2022/07/30 03:06:09;;;;;;;5.82;3.17;;;;;;;16.07;97.07;95992.31;5012797;28;24432;-74
2022/07/30 03:08:36;;;;;;;3.83;3.00;;;;;;;16.11;96.44;95988.50;5018953;28;24436;-74
2022/07/30 03:11:04;;;;;;;8.32;3.42;;;;;;;16.13;95.87;95990.03;5017396;28;24436;-74
2022/07/30 03:13:31;;;;;;;8.37;3.60;;;;;;;16.15;95.62;95995.94;5020394;28;24794;-74
2022/07/30 03:16:00;;;;;;;10.00;3.17;;;;;;;16.16;95.71;95992.38;5011294;28;24436;-75
2022/07/30 03:18:32;;;;;;;6.72;3.88;;;;;;;16.18;95.44;95994.88;5018894;28;24459;-74
2022/07/30 03:21:00;;;;;;;5.32;3.53;;;;;;;16.25;94.74;96003.88;5010356;28;24470;-73
2022/07/30 03:23:29;;;;;;;5.73;3.60;;;;;;;16.17;95.35;96001.88;5020416;28;24471;-75
2022/07/30 03:26:03;;;;;;;8.17;3.30;;;;;;;16.18;95.38;95993.09;5013322;28;24439;-74
2022/07/30 03:28:32;;;;;;;6.00;3.20;;;;;;;16.13;96.08;95994.41;5019529;28;24444;-75
2022/07/30 03:30:58;;;;;;;3.58;2.83;;;;;;;16.08;96.29;96001.78;5010512;28;24435;-74
2022/07/30 03:33:26;;;;;;;4.88;2.95;;;;;;;16.07;96.21;96000.16;5002993;28;24448;-74
2022/07/30 03:35:53;;;;;;;5.53;3.05;;;;;;;16.15;96.19;96008.19;5009005;28;24448;-73
2022/07/30 03:38:21;;;;;;;4.55;3.05;;;;;;;16.14;95.35;96007.34;5010356;28;24499;-74
2022/07/30 03:40:50;;;;;;;7.78;3.22;;;;;;;16.21;95.25;96008.53;5010132;28;24539;-75
2022/07/30 03:43:17;;;;;;;4.50;3.23;;;;;;;16.28;93.29;96011.47;5019586;28;24496;-75
2022/07/30 03:45:46;;;;;;;4.57;3.28;;;;;;;16.34;93.45;96017.97;5010688;28;24440;-74
2022/07/30 03:48:13;;;;;;;3.25;2.45;;;;;;;16.40;91.81;96020.09;5013522;28;24829;-74
2022/07/30 03:50:41;;;;;;;6.60;3.25;;;;;;;16.48;91.52;96012.44;5012521;28;24451;-73
2022/07/30 03:53:09;;;;;;;7.85;2.60;;;;;;;16.51;91.44;96012.19;5018633;28;24551;-75
2022/07/30 03:55:36;;;;;;;4.28;3.08;;;;;;;16.54;90.84;96008.47;5019538;28;24633;-74
2022/07/30 03:58:08;;;;;;;4.07;2.95;;;;;;;16.53;90.89;96006.81;5014380;28;24440;-74
2022/07/30 04:00:35;;;;;;;4.32;2.90;;;;;;;16.39;90.40;96016.66;5018159;28;24829;-74
2022/07/30 04:03:02;;;;;;;5.18;3.42;;;;;;;16.21;93.10;96018.16;5022661;28;24497;-75
2022/07/30 04:05:28;;;;;;;5.00;3.00;;;;;;;15.85;96.94;96024.53;5024243;28;24915;-74
2022/07/30 04:07:55;;;;;;;4.70;2.97;;;;;;;15.81;97.65;96028.34;5021988;28;24435;-74
2022/07/30 04:10:21;;;;;;;4.70;3.03;;;;;;;15.68;99.14;96033.72;5024493;28;24888;-74
2022/07/30 04:12:48;;;;;;;4.22;3.10;;;;;;;15.64;100.00;96027.03;5019577;28;24440;-75
2022/07/30 04:15:16;;;;;;;4.38;3.10;;;;;;;15.69;99.32;96036.22;5016754;28;24439;-75
2022/07/30 04:17:46;;;;;;;3.63;3.17;;;;;;;15.73;99.25;96031.59;5017884;28;24490;-74
2022/07/30 04:20:17;;;;;;;5.40;2.97;;;;;;;15.90;98.29;96036.28;5022285;28;24933;-75
2022/07/30 04:22:44;;;;;;;4.87;3.23;;;;;;;16.05;97.13;96043.84;5014506;28;24447;-76
2022/07/30 04:25:11;;;;;;;4.45;2.60;;;;;;;16.16;95.92;96044.63;5024513;28;24486;-75
2022/07/30 04:27:39;;;;;;;4.50;2.75;;;;;;;16.28;95.45;96049.81;5027089;28;24490;-76
2022/07/30 04:30:07;;;;;;;3.05;2.50;;;;;;;16.33;95.07;96045.88;5022607;28;25055;-75
2022/07/30 04:32:36;;;;;;;3.45;3.00;;;;;;;16.39;94.25;96052.41;5020373;28;24522;-75
2022/07/30 04:35:03;;;;;;;5.90;2.70;;;;;;;16.47;93.52;96050.00;5023699;28;24446;-76
2022/07/30 04:37:30;;;;;;;3.58;3.03;;;;;;;16.51;92.89;96051.41;5022635;28;24528;-75
2022/07/30 04:39:56;;;;;;;5.47;3.20;;;;;;;16.52;92.65;96047.00;5018215;28;25023;-75
2022/07/30 04:42:24;;;;;;;4.40;2.70;;;;;;;16.58;92.02;96055.19;5020123;28;24535;-74
2022/07/30 04:44:50;;;;;;;4.00;3.00;;;;;;;16.43;91.42;96049.41;5022312;28;24440;-76
2022/07/30 04:47:17;;;;;;;5.40;3.30;;;;;;;16.16;92.81;96060.31;5023000;28;24670;-75
2022/07/30 04:49:46;;;;;;;5.88;3.17;;;;;;;16.28;93.20;96062.88;5017244;28;24437;-75
2022/07/30 04:52:14;;;;;;;4.20;3.10;;;;;;;16.44;92.81;96069.38;5020408;28;24441;-75
2022/07/30 04:54:44;;;;;;;4.50;3.10;;;;;;;16.41;93.67;96068.78;5020682;28;25139;-76
2022/07/30 04:57:13;;;;;;;6.43;3.33;;;;;;;16.56;93.65;96064.91;5022661;28;24841;-75
2022/07/30 04:59:39;;;;;;;4.22;3.03;;;;;;;16.64;92.04;96067.72;5012296;28;24459;-74
2022/07/30 05:02:08;;;;;;;4.65;3.03;;;;;;;16.71;91.78;96068.06;5021262;28;24524;-75
2022/07/30 05:04:36;;;;;;;4.10;3.20;;;;;;;16.77;91.32;96072.00;5020178;28;24508;-76
2022/07/30 05:07:05;;;;;;;5.10;3.50;;;;;;;16.91;89.74;96064.66;5021341;28;24435;-76
2022/07/30 05:09:32;;;;;;;3.80;2.97;;;;;;;16.96;89.11;96072.13;5015107;28;24850;-75
2022/07/30 05:11:59;;;;;;;5.07;3.22;;;;;;;17.14;88.57;96077.63;5021944;28;24467;-75
2022/07/30 05:14:26;;;;;;;5.20;3.13;;;;;;;17.32;88.24;96070.00;5019408;28;25036;-76
2022/07/30 05:16:54;;;;;;;5.32;3.17;;;;;;;17.51;87.93;96075.31;5025042;28;24463;-75
2022/07/30 05:19:22;;;;;;;6.30;3.80;;;;;;;17.70;88.75;96078.97;5011577;28;24934;-75
2022/07/30 05:21:48;;;;;;;5.30;3.42;;;;;;;17.85;88.47;96077.66;5024430;28;24427;-74
2022/07/30 05:24:16;;;;;;;4.97;3.40;;;;;;;17.88;88.75;96082.66;5019293;28;24436;-75
2022/07/30 05:26:43;;;;;;;7.17;3.40;;;;;;;17.97;87.88;96081.84;5014179;28;24448;-73
2022/07/30 05:29:09;;;;;;;6.22;3.83;;;;;;;18.13;85.89;96082.16;5016730;28;24806;-76
2022/07/30 05:31:36;;;;;;;6.20;3.60;;;;;;;18.19;86.33;96078.16;5022183;28;24504;-76
2022/07/30 05:34:02;;;;;;;5.90;3.25;;;;;;;18.27;87.21;96083.53;5018976;28;24440;-76
2022/07/30 05:36:29;;;;;;;3.63;2.97;;;;;;;18.32;86.15;96085.78;5018411;28;24443;-74
2022/07/30 05:38:55;;;;;;;6.40;3.50;;;;;;;18.35;82.12;96093.34;5022171;28;24517;-75
2022/07/30 05:41:23;;;;;;;6.57;3.63;;;;;;;18.37;80.53;96092.25;5022387;28;24472;-75
2022/07/30 05:43:49;;;;;;;4.45;2.95;;;;;;;18.36;80.53;96090.59;5022375;28;24447;-76
2022/07/30 05:46:16;;;;;;;4.50;3.20;;;;;;;18.23;81.46;96091.81;5023884;28;24436;-76
2022/07/30 05:48:42;;;;;;;5.20;3.57;;;;;;;18.17;80.93;96090.59;5020667;28;24515;-76
2022/07/30 05:51:08;;;;;;;4.80;3.10;;;;;;;18.19;80.99;96093.88;5020707;28;24905;-76
2022/07/30 05:53:35;;;;;;;4.32;3.40;;;;;;;18.27;80.66;96099.28;5016592;28;24596;-75
2022/07/30 05:56:01;;;;;;;9.35;3.70;;;;;;;18.34;80.60;96096.94;5022880;28;24447;-74
2022/07/30 05:58:29;;;;;;;7.07;3.22;;;;;;;18.53;79.71;96107.44;5018329;28;24455;-76
2022/07/30 06:00:56;;;;;;;4.03;3.30;;;;;;;18.74;78.39;96101.28;5019688;28;24459;-76
2022/07/30 06:03:22;;;;;;;5.05;3.20;;;;;;;18.90;77.88;96103.34;5016905;28;24811;-76
2022/07/30 06:05:48;;;;;;;4.95;3.00;;;;;;;19.12;76.37;96102.22;5018577;28;25012;-76
2022/07/30 06:08:15;;;;;;;5.70;3.33;;;;;;;19.32;75.10;96103.84;5020270;28;24801;-76
2022/07/30 06:10:41;;;;;;;5.10;3.20;;;;;;;19.43;73.60;96101.06;5023036;28;24441;-76
2022/07/30 06:13:08;;;;;;;4.63;3.28;;;;;;;19.55;72.77;96102.53;5018036;28;24444;-75
2022/07/30 06:15:36;;;;;;;7.70;3.00;;;;;;;19.73;72.26;96097.38;5016592;28;24444;-76
2022/07/30 06:18:02;;;;;;;4.25;3.20;;;;;;;19.76;72.15;96096.25;5021974;28;24448;-76
2022/07/30 06:20:29;;;;;;;5.15;3.00;;;;;;;19.83;71.77;96108.66;5022371;28;24454;-76
2022/07/30 06:22:55;;;;;;;5.55;3.42;;;;;;;19.68;72.13;96104.03;5020313;28;24448;-76
2022/07/30 06:25:22;;;;;;;3.60;2.70;;;;;;;19.79;71.37;96098.59;5023759;28;24498;-76
2022/07/30 06:27:48;;;;;;;3.85;2.88;;;;;;;20.01;70.16;96105.25;5020402;28;25002;-76
2022/07/30 06:30:15;;;;;;;4.13;3.40;;;;;;;19.95;70.08;96111.09;5021482;28;25036;-75
2022/07/30 06:32:44;;;;;;;9.20;3.60;;;;;;;19.84;69.89;96104.25;5013373;28;24440;-76
2022/07/30 06:35:11;;;;;;;5.37;3.40;;;;;;;19.89;70.43;96109.06;5001745;28;24846;-75
2022/07/30 06:37:37;;;;;;;5.22;3.90;;;;;;;19.95;69.83;96109.31;5005773;28;24435;-75
2022/07/30 06:40:05;;;;;;;6.45;3.42;;;;;;;20.02;69.59;96107.75;5008176;28;24464;-75
2022/07/30 06:42:31;;;;;;;4.38;3.38;;;;;;;20.22;68.72;96111.09;5015152;28;25366;-75
2022/07/30 06:44:58;;;;;;;5.23;3.97;;;;;;;20.13;68.58;96114.59;5032414;22;24677;-76
2022/07/30 06:47:27;;;;;;;6.03;3.45;;;;;;;20.23;67.87;96109.28;5018773;28;24443;-75
2022/07/30 06:49:55;;;;;;;4.70;3.20;;;;;;;20.26;68.01;96109.81;5011408;28;25004;-75
2022/07/30 06:52:22;;;;;;;5.05;3.50;;;;;;;20.38;66.63;96113.06;5006190;28;24516;-75
2022/07/30 06:54:48;;;;;;;5.55;3.20;;;;;;;20.77;66.46;96107.56;4998022;28;24445;-76
2022/07/30 06:57:15;;;;;;;4.70;3.20;;;;;;;20.98;63.68;96104.59;4990368;28;24429;-75
2022/07/30 06:59:42;;;;;;;4.10;2.83;;;;;;;21.06;62.43;96111.75;4988431;28;24464;-75
2022/07/30 07:02:08;;;;;;;6.78;3.00;;;;;;;21.02;60.52;96109.44;4990640;28;24440;-76
2022/07/30 07:04:35;;;;;;;6.93;2.92;;;;;;;21.08;61.02;96115.06;4990179;28;24464;-75
2022/07/30 07:07:03;;;;;;;8.27;2.40;;;;;;;21.53;59.49;96099.09;4990343;28;24479;-75
2022/07/30 07:09:29;;;;;;;8.13;2.75;;;;;;;21.45;59.80;96112.22;4989919;28;25012;-75
2022/07/30 07:11:55;;;;;;;6.63;2.58;;;;;;;21.61;56.32;96111.50;4990194;28;24433;-75
2022/07/30 07:14:22;;;;;;;3.17;2.27;;;;;;;21.77;57.81;96108.97;4989994;28;24499;-76
2022/07/30 07:16:48;;;;;;;8.65;2.13;;;;;;;21.59;54.18;96113.47;4990366;28;24803;-75
2022/07/30 07:19:15;;;;;;;2.95;1.90;;;;;;;21.68;53.86;96117.78;4989996;28;24460;-75
2022/07/30 07:21:41;;;;;;;3.15;2.10;;;;;;;21.80;52.38;96115.72;4990197;28;25317;-75
2022/07/30 07:24:09;;;;;;;4.13;1.80;;;;;;;22.26;50.92;96118.91;4987016;28;25929;-75
2022/07/30 07:26:35;;;;;;;4.78;2.20;;;;;;;22.18;50.42;96115.25;4986714;28;24429;-75
2022/07/30 07:29:02;;;;;;;5.70;2.70;;;;;;;21.84;50.73;96111.78;4989652;28;24811;-76
2022/07/30 07:31:28;;;;;;;6.65;2.28;;;;;;;22.15;50.79;96126.13;4988450;28;24432;-75
2022/07/30 07:33:55;;;;;;;5.95;1.98;;;;;;;22.28;49.80;96119.56;4986945;28;24466;-75
2022/07/30 07:36:22;;;;;;;3.78;2.03;;;;;;;22.34;48.16;96124.22;4989558;28;24854;-76
2022/07/30 07:38:49;;;;;;;8.53;2.27;;;;;;;21.96;48.91;96118.44;4990620;28;24440;-76
2022/07/30 07:41:16;;;;;;;9.93;1.98;;;;;;;21.82;48.83;96119.84;4993724;28;24452;-76
2022/07/30 07:43:43;;;;;;;6.18;2.70;;;;;;;21.87;47.93;96122.81;4991625;28;24433;-75
2022/07/30 07:46:11;;;;;;;3.05;1.92;;;;;;;22.19;47.93;96116.91;4991157;28;24437;-75
2022/07/30 07:48:38;;;;;;;4.90;2.10;;;;;;;22.06;47.85;96123.56;4993440;28;24476;-76
2022/07/30 07:51:04;;;;;;;4.65;2.10;;;;;;;22.37;47.35;96129.16;4988878;28;24436;-75
2022/07/30 07:53:31;;;;;;;6.68;2.00;;;;;;;22.18;47.95;96127.63;4992970;28;24494;-75
2022/07/30 07:55:58;;;;;;;5.40;2.30;;;;;;;22.37;46.74;96130.00;4984918;28;24444;-75
2022/07/30 07:58:26;;;;;;;9.13;2.20;;;;;;;21.86;47.56;96125.63;4992778;28;24441;-73
2022/07/30 08:00:53;;;;;;;3.60;1.98;;;;;;;21.95;47.67;96120.25;4992685;28;25048;-75
2022/07/30 08:03:20;;;;;;;3.97;1.60;;;;;;;22.03;47.84;96131.81;4986984;28;24499;-74
2022/07/30 08:05:46;;;;;;;8.27;2.40;;;;;;;21.92;46.83;96119.75;4992754;28;24445;-77
2022/07/30 08:08:13;;;;;;;4.05;1.90;;;;;;;22.22;47.00;96121.88;4989399;28;24870;-75
2022/07/30 08:10:39;;;;;;;3.40;1.92;;;;;;;22.67;45.59;96125.94;4986488;28;24445;-73
2022/07/30 08:13:06;;;;;;;2.70;1.50;;;;;;;22.96;45.53;96123.88;4987735;28;24804;-75
2022/07/30 08:15:34;;;;;;;2.83;1.65;;;;;;;22.82;45.20;96131.41;4993073;28;24536;-73
2022/07/30 08:18:00;;;;;;;3.78;1.98;;;;;;;23.09;43.28;96127.66;4991301;28;24437;-74
2022/07/30 08:20:27;;;;;;;4.15;1.90;;;;;;;22.48;44.13;96123.59;4991186;28;24858;-74
2022/07/30 08:22:53;;;;;;;3.07;1.77;;;;;;;22.69;43.88;96128.41;4991020;28;24429;-74
2022/07/30 08:25:21;;;;;;;4.22;1.90;;;;;;;23.00;43.40;96123.38;4991095;28;24433;-73
2022/07/30 08:27:47;;;;;;;4.70;1.67;;;;;;;23.19;42.42;96125.66;4991249;28;24433;-74
2022/07/30 08:30:14;;;;;;;3.10;1.73;;;;;;;23.13;42.31;96120.22;4991218;28;24433;-74
2022/07/30 08:32:42;;;;;;;5.93;2.10;;;;;;;22.87;43.28;96121.16;4992495;28;24496;-74
2022/07/30 08:35:09;;;;;;;8.68;2.58;;;;;;;22.94;43.52;96124.84;4992918;28;24437;-74
2022/07/30 08:37:35;;;;;;;5.93;2.30;;;;;;;22.57;44.35;96137.63;4992739;28;24460;-74
2022/07/30 08:40:03;;;;;;;5.03;2.33;;;;;;;22.55;44.39;96126.41;4992878;28;24571;-74
2022/07/30 08:42:30;;;;;;;5.47;2.30;;;;;;;22.03;46.43;96132.66;4993010;28;24436;-74
2022/07/30 08:44:57;;;;;;;3.72;1.90;;;;;;;21.85;47.03;96124.00;4991898;28;24440;-74
2022/07/30 08:47:27;;;;;;;4.80;1.90;;;;;;;22.47;46.79;96124.56;4992086;28;25001;-75
2022/07/30 08:50:00;;;;;;;3.73;1.80;;;;;;;22.58;45.62;96123.44;4992490;28;24498;-75
2022/07/30 08:52:26;;;;;;;5.22;2.22;;;;;;;22.36;45.88;96127.50;4992592;28;25123;-75
2022/07/30 08:54:53;;;;;;;4.65;1.95;;;;;;;22.31;45.93;96127.16;4992516;28;24838;-75
2022/07/30 08:57:20;;;;;;;4.20;2.10;;;;;;;22.01;46.03;96123.22;4988954;28;24479;-75
2022/07/30 08:59:50;;;;;;;3.80;1.90;;;;;;;21.91;46.56;96124.16;4992385;28;24449;-75
2022/07/30 09:02:16;;;;;;;6.70;2.25;;;;;;;22.46;45.03;96130.84;4992388;28;24802;-75
2022/07/30 09:04:43;;;;;;;7.55;1.90;;;;;;;22.64;44.04;96120.16;4992209;28;24605;-75
2022/07/30 09:07:11;;;;;;;2.83;1.88;;;;;;;22.80;45.03;96130.72;4992556;28;24428;-75
2022/07/30 09:09:37;;;;;;;4.35;1.50;;;;;;;23.07;44.65;96129.66;4991883;28;24989;-75
2022/07/30 09:12:24;;;;;;;3.38;1.48;;;;;;;23.36;43.49;96126.50;4992303;28;24476;-75
2022/07/30 09:15:01;;;;;;;3.95;1.92;;;;;;;23.00;44.37;96139.22;4991871;28;24989;-75
2022/07/30 09:17:28;;;;;;;5.50;1.92;;;;;;;23.03;44.26;96135.44;4992222;28;24499;-75
2022/07/30 09:20:02;;;;;;;5.10;2.07;;;;;;;23.16;43.79;96127.81;4991792;28;24447;-75
2022/07/30 09:22:42;;;;;;;4.63;1.83;;;;;;;23.44;43.49;96128.31;4991964;28;24445;-75
2022/07/30 09:25:09;;;;;;;4.65;2.10;;;;;;;23.51;43.63;96129.28;4991656;28;24993;-75
2022/07/30 09:27:44;;;;;;;7.80;2.43;;;;;;;23.18;44.50;96131.97;4991766;28;24433;-75
2022/07/30 09:30:11;;;;;;;2.97;1.98;;;;;;;23.51;43.12;96131.94;4985599;28;24526;-75
2022/07/30 09:32:48;;;;;;;7.40;2.37;;;;;;;23.65;42.34;96135.69;4992000;28;24441;-75
2022/07/30 09:35:16;;;;;;;4.43;1.85;;;;;;;23.69;42.41;96134.38;4985919;28;25056;-75
2022/07/30 09:37:45;;;;;;;3.22;1.70;;;;;;;24.19;41.98;96132.41;4991584;28;24437;-75
2022/07/30 09:40:13;;;;;;;8.23;2.10;;;;;;;24.15;41.00;96131.94;4991497;28;24528;-75
2022/07/30 09:42:40;;;;;;;5.80;2.10;;;;;;;23.36;42.65;96133.56;4991882;28;24479;-75
2022/07/30 09:45:08;;;;;;;5.38;2.10;;;;;;;23.01;43.76;96138.22;4991732;28;25061;-75
2022/07/30 09:47:36;;;;;;;2.77;1.50;;;;;;;23.31;44.02;96134.09;4991573;28;24513;-75
2022/07/30 09:50:04;;;;;;;5.75;2.03;;;;;;;23.41;42.89;96132.09;4983888;28;24528;-75
2022/07/30 09:52:31;;;;;;;5.18;2.17;;;;;;;23.46;42.08;96128.94;4991400;28;24433;-75
2022/07/30 09:54:59;;;;;;;4.20;1.80;;;;;;;23.80;42.05;96126.09;4991222;28;24441;-75
2022/07/30 09:57:26;;;;;;;3.90;1.60;;;;;;;24.37;40.81;96120.59;4985703;28;24487;-75
2022/07/30 09:59:52;;;;;;;4.35;2.10;;;;;;;24.61;40.22;96126.75;4991050;28;24436;-75
2022/07/30 10:02:19;;;;;;;3.50;1.67;;;;;;;24.86;39.69;96130.09;4991473;28;24524;-74
2022/07/30 10:04:46;;;;;;;4.78;2.03;;;;;;;25.39;40.09;96119.59;4991055;28;24445;-74
2022/07/30 10:07:18;;;;;;;4.80;2.10;;;;;;;24.88;38.82;96125.41;4991403;28;24444;-74
2022/07/30 10:09:47;;;;;;;2.60;1.40;;;;;;;25.43;39.04;96113.72;4990698;28;24468;-74
2022/07/30 10:12:19;;;;;;;4.60;2.03;;;;;;;25.12;39.15;96118.34;4985226;28;24994;-75
2022/07/30 10:14:47;;;;;;;6.80;1.97;;;;;;;24.43;39.52;96119.09;4986208;28;24803;-74
2022/07/30 10:17:14;;;;;;;4.78;1.70;;;;;;;23.87;40.81;96115.66;4990168;28;24990;-74
2022/07/30 10:19:41;;;;;;;6.35;1.90;;;;;;;23.71;41.16;96113.06;4988360;28;24448;-74
2022/07/30 10:22:09;;;;;;;4.25;1.80;;;;;;;23.28;41.62;96110.63;4987950;28;25020;-74
2022/07/30 10:24:36;;;;;;;6.05;2.08;;;;;;;23.77;41.08;96109.72;4990820;28;24441;-73
2022/07/30 10:27:03;;;;;;;5.32;1.90;;;;;;;24.22;40.08;96108.25;4990794;28;24491;-74
2022/07/30 10:29:32;;;;;;;4.75;2.03;;;;;;;24.39;40.00;96112.50;4986455;28;24472;-74
2022/07/30 10:32:00;;;;;;;2.42;1.38;;;;;;;24.30;39.80;96106.41;4979650;28;24438;-74
2022/07/30 10:34:27;;;;;;;4.82;1.80;;;;;;;24.85;38.65;96104.59;4985997;28;24445;-74
2022/07/30 10:36:57;;;;;;;5.35;1.73;;;;;;;24.54;38.00;96104.63;4990609;28;24487;-73
2022/07/30 10:39:29;;;;;;;6.10;1.45;;;;;;;24.72;37.49;96112.31;4989691;28;21280;-73
2022/07/30 10:42:07;;;;;;;5.72;1.63;;;;;;;25.26;36.95;96114.91;4987119;28;24464;-73
2022/07/30 10:44:52;;;;;;;7.45;1.60;;;;;;;25.26;37.09;96105.13;4983107;28;24448;-73
2022/07/30 10:47:20;;;;;;;2.88;1.45;;;;;;;25.82;37.03;96105.59;4988446;28;24437;-73
2022/07/30 10:50:10;;;;;;;4.15;1.60;;;;;;;26.14;36.05;96102.72;4988166;28;25314;-73
2022/07/30 10:52:49;;;;;;;3.45;1.60;;;;;;;25.81;35.87;96098.63;4987309;28;24472;-73
2022/07/30 10:55:17;;;;;;;5.47;1.60;;;;;;;25.23;36.87;96102.81;4978819;28;24535;-72
2022/07/30 10:58:04;;;;;;;2.20;1.13;;;;;;;25.62;36.03;96099.13;4989068;28;24445;-73
2022/07/30 11:00:32;;;;;;;5.90;1.37;;;;;;;25.97;36.08;96099.44;4990093;28;24440;-72
2022/07/30 11:03:19;;;;;;;3.17;1.70;;;;;;;26.12;35.58;96105.56;4990183;28;24429;-73
2022/07/30 11:05:48;;;;;;;3.78;1.30;;;;;;;26.01;34.33;96098.88;4989375;28;24452;-73
2022/07/30 11:08:33;;;;;;;2.55;1.30;;;;;;;25.39;35.37;96088.59;4989371;28;24435;-73
2022/07/30 11:11:00;;;;;;;2.50;1.30;;;;;;;25.84;35.19;96100.09;4990155;28;24429;-73
2022/07/30 11:13:49;;;;;;;2.73;1.33;;;;;;;26.29;35.04;96106.16;4985559;28;24444;-73
2022/07/30 11:16:19;;;;;;;4.90;1.30;;;;;;;25.67;35.48;96106.56;4984265;28;24998;-73
2022/07/30 11:19:06;;;;;;;3.13;1.17;;;;;;;25.48;34.49;96110.56;4987377;28;24445;-73
2022/07/30 11:21:33;;;;;;;3.88;1.33;;;;;;;25.49;35.44;96105.06;4981273;28;24882;-73
2022/07/30 11:23:59;;;;;;;3.25;1.25;;;;;;;25.67;34.81;96091.47;4989884;28;24437;-73
2022/07/30 11:26:51;;;;;;;2.92;1.30;;;;;;;26.19;34.82;96098.50;4989852;28;24433;-73
2022/07/30 11:29:38;;;;;;;4.07;1.30;;;;;;;25.85;34.49;96087.66;4989994;28;24433;-73
2022/07/30 11:32:26;;;;;;;5.90;1.43;;;;;;;26.15;35.30;96094.59;4989304;28;24552;-73
2022/07/30 11:35:10;;;;;;;2.75;1.13;;;;;;;25.89;35.47;96089.75;4981833;28;24512;-73
2022/07/30 11:37:55;;;;;;;2.08;1.35;;;;;;;26.08;35.07;96085.72;4982554;28;24480;-73
2022/07/30 11:40:23;;;;;;;2.65;1.58;;;;;;;26.35;34.43;96083.38;4985529;28;24446;-73
2022/07/30 11:42:50;;;;;;;5.75;1.52;;;;;;;26.62;34.50;96082.66;4980751;28;24827;-73